Time;durP1;ratioP1;P1;durP2;ratioP2;P2;SDS_P1;SDS_P2;PMS_P1;PMS_P2;Temp;Humidity;BMP_temperature;BMP_pressure;BME280_temperature;BME280_humidity;BME280_pressure;Samples;Min_cycle;Max_cycle;Signal;HPM_P1;HPM_P2
2023/06/28 00:01:59;;;;;;;;;;;;;;;14.32;100.00;98596.05;135321;1281;22808;-69
2023/06/28 00:05:02;;;;;;;11.60;2.90;;;;;;;14.32;100.00;98597.14;135322;1281;22522;-72
2023/06/28 00:08:04;;;;;;;10.60;3.00;;;;;;;14.27;100.00;98599.09;135398;1257;22543;-69
2023/06/28 00:11:07;;;;;;;;;;;;;;;14.31;100.00;98596.48;135352;1261;22515;-68
2023/06/28 00:14:09;;;;;;;9.00;2.70;;;;;;;14.29;100.00;98599.64;135355;1281;23907;-68
2023/06/28 00:17:11;;;;;;;;;;;;;;;14.23;100.00;98598.54;135365;1281;22769;-71
2023/06/28 00:20:14;;;;;;;14.10;2.90;;;;;;;14.28;100.00;98598.70;135333;1281;22536;-68
2023/06/28 00:23:16;;;;;;;;;;;;;;;14.18;100.00;98597.36;135340;1262;22500;-69
2023/06/28 00:26:19;;;;;;;10.00;2.80;;;;;;;14.15;100.00;98599.70;135349;1281;22572;-68
2023/06/28 00:29:21;;;;;;;;;;;;;;;14.18;100.00;98605.21;135361;1277;22512;-69
2023/06/28 00:32:24;;;;;;;10.30;2.70;;;;;;;14.18;100.00;98605.41;135393;1281;25349;-70
2023/06/28 00:35:26;;;;;;;;;;;;;;;14.14;100.00;98608.00;135366;1281;22539;-68
2023/06/28 00:38:28;;;;;;;9.70;2.80;;;;;;;14.08;100.00;98605.91;135327;1281;22554;-70
2023/06/28 00:41:31;;;;;;;12.10;3.00;;;;;;;14.08;100.00;98604.10;135375;1281;22656;-68
2023/06/28 00:44:33;;;;;;;;;;;;;;;14.06;100.00;98603.08;135301;1281;22514;-68
2023/06/28 00:47:36;;;;;;;12.10;2.70;;;;;;;13.99;100.00;98602.21;135394;1281;22529;-63
2023/06/28 00:50:38;;;;;;;;;;;;;;;14.09;100.00;98607.19;135391;1281;25460;-62
2023/06/28 00:53:41;;;;;;;11.90;2.90;;;;;;;13.97;100.00;98598.79;135326;1281;22529;-64
2023/06/28 00:56:43;;;;;;;;;;;;;;;13.99;100.00;98602.85;135436;1281;22534;-62
2023/06/28 00:59:45;;;;;;;11.30;2.90;;;;;;;14.03;100.00;98594.85;135346;1281;22554;-65
2023/06/28 01:02:48;;;;;;;12.10;3.10;;;;;;;14.05;100.00;98596.40;135286;1281;22566;-68
2023/06/28 01:05:51;;;;;;;;;;;;;;;14.20;100.00;98597.20;135357;1281;22512;-63
2023/06/28 01:08:54;;;;;;;11.80;3.00;;;;;;;14.22;100.00;98592.84;135283;1281;22548;-68
2023/06/28 01:11:57;;;;;;;16.00;2.90;;;;;;;14.18;100.00;98593.15;135286;1281;23343;-69
2023/06/28 01:14:59;;;;;;;;;;;;;;;14.14;100.00;98593.39;135389;1281;22513;-68
2023/06/28 01:18:02;;;;;;;14.60;3.20;;;;;;;14.06;100.00;98594.77;135352;1281;22525;-68
2023/06/28 01:21:04;;;;;;;;;;;;;;;13.96;100.00;98587.81;135350;1281;22637;-70
2023/06/28 01:24:10;;;;;;;14.10;3.50;;;;;;;13.93;100.00;98588.54;135339;1281;22646;-66
2023/06/28 01:27:13;;;;;;;11.50;2.90;;;;;;;14.07;100.00;98580.80;135363;1281;22526;-69
2023/06/28 01:30:15;;;;;;;;;;;;;;;13.99;100.00;98582.50;135349;1281;22513;-69
2023/06/28 01:33:18;;;;;;;13.40;3.20;;;;;;;13.86;100.00;98582.58;135367;1281;22555;-68
2023/06/28 01:36:20;;;;;;;;;;;;;;;13.84;100.00;98583.10;135373;1281;22509;-67
2023/06/28 01:39:23;;;;;;;13.80;3.30;;;;;;;13.76;100.00;98577.27;135290;1281;25416;-69
2023/06/28 01:42:25;;;;;;;14.30;3.30;;;;;;;13.73;100.00;98572.55;135397;1281;24128;-67
2023/06/28 01:45:28;;;;;;;;;;;;;;;13.80;100.00;98574.83;135379;1281;24324;-67
2023/06/28 01:48:30;;;;;;;11.80;2.80;;;;;;;13.85;100.00;98577.24;135350;1281;23775;-69
2023/06/28 01:51:33;;;;;;;;;;;;;;;13.78;100.00;98574.25;135358;1262;24266;-69
2023/06/28 01:54:36;;;;;;;12.20;3.40;;;;;;;13.84;100.00;98575.09;135357;1281;25331;-69
2023/06/28 01:57:38;;;;;;;;;;;;;;;13.79;100.00;98575.92;135355;1281;22528;-65
2023/06/28 02:00:41;;;;;;;12.20;3.30;;;;;;;13.86;100.00;98577.89;135384;1260;24206;-66
2023/06/28 02:03:43;;;;;;;;;;;;;;;13.70;100.00;98577.39;135397;1281;22516;-68
2023/06/28 02:06:46;;;;;;;16.20;4.60;;;;;;;13.68;100.00;98575.03;135355;1281;22530;-68
2023/06/28 02:09:48;;;;;;;;;;;;;;;13.76;100.00;98576.36;135388;1281;22520;-67
2023/06/28 02:12:51;;;;;;;12.80;3.60;;;;;;;13.75;100.00;98574.68;135366;1281;25361;-67
2023/06/28 02:15:53;;;;;;;15.80;3.40;;;;;;;13.72;100.00;98569.27;135360;1281;24384;-68
2023/06/28 02:18:57;;;;;;;14.10;3.40;;;;;;;13.68;100.00;98575.09;135339;1281;22541;-68
2023/06/28 02:21:59;;;;;;;15.10;3.60;;;;;;;13.65;100.00;98580.38;135380;1281;22526;-66
2023/06/28 02:25:02;;;;;;;;;;;;;;;13.75;100.00;98580.64;135345;1281;22580;-70
2023/06/28 02:28:05;;;;;;;14.30;3.10;;;;;;;13.74;100.00;98581.31;135320;1281;22548;-69
2023/06/28 02:31:07;;;;;;;;;;;;;;;13.66;100.00;98586.13;135366;1281;22517;-68
2023/06/28 02:34:09;;;;;;;12.70;3.40;;;;;;;13.71;100.00;98577.50;135342;1281;22526;-67
2023/06/28 02:37:12;;;;;;;;;;;;;;;13.67;100.00;98578.13;135384;1281;22523;-70
2023/06/28 02:40:14;;;;;;;11.60;3.20;;;;;;;13.62;100.00;98575.71;135346;1281;22536;-72
2023/06/28 02:43:17;;;;;;;;;;;;;;;13.68;100.00;98578.08;135353;1281;22507;-72
2023/06/28 02:46:19;;;;;;;12.20;3.20;;;;;;;13.61;100.00;98577.34;135378;1281;22561;-70
2023/06/28 02:49:22;;;;;;;;;;;;;;;13.62;100.00;98573.38;135352;1281;22503;-68
2023/06/28 02:52:24;;;;;;;15.00;3.80;;;;;;;13.65;100.00;98574.40;135333;1281;22579;-71
2023/06/28 02:55:26;;;;;;;;;;;;;;;13.63;100.00;98576.66;131289;1281;5398211;-71
2023/06/28 02:58:29;;;;;;;14.70;3.60;;;;;;;13.60;100.00;98585.66;135304;1281;23146;-69
2023/06/28 03:01:31;;;;;;;16.10;3.50;;;;;;;13.61;100.00;98590.49;135337;1281;22549;-68
2023/06/28 03:04:39;;;;;;;13.10;3.30;;;;;;;13.58;100.00;98590.58;135357;1281;22542;-71
2023/06/28 03:07:42;;;;;;;16.50;3.60;;;;;;;13.64;100.00;98589.79;135350;1262;23157;-70
2023/06/28 03:10:44;;;;;;;;;;;;;;;13.70;100.00;98593.92;135379;1281;22614;-69
2023/06/28 03:13:46;;;;;;;11.90;3.30;;;;;;;13.62;100.00;98591.11;135369;1281;22526;-71
2023/06/28 03:16:49;;;;;;;;;;;;;;;13.64;100.00;98595.05;135378;1276;22514;-65
2023/06/28 03:19:51;;;;;;;14.30;3.70;;;;;;;13.71;100.00;98592.94;135274;1281;22556;-69
2023/06/28 03:22:54;;;;;;;;;;;;;;;13.69;100.00;98593.27;135342;1277;22504;-72
2023/06/28 03:25:56;;;;;;;12.80;3.40;;;;;;;13.73;100.00;98588.37;135336;1277;22541;-69
2023/06/28 03:28:59;;;;;;;18.30;3.70;;;;;;;13.80;100.00;98586.23;135349;1281;22558;-69
2023/06/28 03:32:02;;;;;;;14.40;3.50;;;;;;;14.01;100.00;98583.77;135278;1277;22537;-69
2023/06/28 03:35:04;;;;;;;14.00;3.70;;;;;;;14.11;100.00;98585.23;135392;1281;22535;-70
2023/06/28 03:38:07;;;;;;;12.90;3.30;;;;;;;14.10;100.00;98582.91;135350;1281;25249;-69
2023/06/28 03:41:10;;;;;;;12.10;3.20;;;;;;;14.26;100.00;98579.83;135352;1262;22526;-68
2023/06/28 03:44:13;;;;;;;;;;;;;;;14.38;100.00;98580.31;135373;1259;22520;-70
2023/06/28 03:47:16;;;;;;;13.40;3.30;;;;;;;14.37;100.00;98576.52;135357;1281;22556;-71
2023/06/28 03:50:19;;;;;;;12.30;2.90;;;;;;;14.45;100.00;98575.45;135338;1281;22532;-68
2023/06/28 03:53:21;;;;;;;11.10;3.20;;;;;;;14.63;100.00;98577.05;135361;1264;22567;-64
2023/06/28 03:56:24;;;;;;;;;;;;;;;14.69;100.00;98580.96;135334;1281;22656;-70
2023/06/28 03:59:32;;;;;;;12.40;2.90;;;;;;;14.74;100.00;98586.00;135315;1281;22578;-70
2023/06/28 04:02:35;;;;;;;8.00;2.60;;;;;;;14.93;100.00;98589.59;135243;1281;22650;-71
2023/06/28 04:05:37;;;;;;;14.30;3.20;;;;;;;15.21;100.00;98590.56;135275;1281;22638;-62
2023/06/28 04:08:40;;;;;;;;;;;;;;;15.57;100.00;98592.48;135402;1281;22608;-66
2023/06/28 04:11:42;;;;;;;13.00;2.80;;;;;;;15.55;100.00;98594.76;135320;1281;25344;-69
2023/06/28 04:14:45;;;;;;;;;;;;;;;15.45;100.00;98593.66;135369;1281;25484;-69
2023/06/28 04:17:47;;;;;;;14.00;3.30;;;;;;;15.48;100.00;98595.19;135315;1281;22560;-69
2023/06/28 04:20:50;;;;;;;;;;;;;;;15.44;100.00;98595.18;135362;1281;22510;-70
2023/06/28 04:23:52;;;;;;;9.60;2.70;;;;;;;15.25;100.00;98594.80;135351;1270;22556;-70
2023/06/28 04:26:54;;;;;;;;;;;;;;;15.41;100.00;98589.64;135342;1281;22506;-70
2023/06/28 04:29:57;;;;;;;11.70;3.00;;;;;;;15.42;100.00;98587.75;135345;1280;22542;-74
2023/06/28 04:33:04;;;;;;;;;;;;;;;15.40;100.00;98592.34;135375;1281;25271;-70
2023/06/28 04:36:07;;;;;;;11.80;3.00;;;;;;;15.36;100.00;98594.41;135318;1281;22564;-67
2023/06/28 04:39:10;;;;;;;;;;;;;;;15.24;100.00;98595.31;135338;1281;22526;-69
2023/06/28 04:42:14;;;;;;;11.10;2.80;;;;;;;15.15;100.00;98600.59;135379;1261;24997;-69
2023/06/28 04:45:16;;;;;;;6.90;2.70;;;;;;;15.24;100.00;98603.69;135354;1281;24294;-68
2023/06/28 04:48:19;;;;;;;14.10;3.10;;;;;;;15.42;100.00;98599.90;135315;1262;23177;-71
2023/06/28 04:51:21;;;;;;;;;;;;;;;15.90;100.00;98595.70;135335;1281;22494;-69
2023/06/28 04:54:24;;;;;;;15.40;3.70;;;;;;;16.14;100.00;98594.19;135322;1281;22536;-70
2023/06/28 04:57:26;;;;;;;;;;;;;;;16.22;100.00;98600.35;135376;1281;22546;-70
2023/06/28 05:00:29;;;;;;;11.70;3.00;;;;;;;16.17;100.00;98604.18;135326;1281;22530;-69
2023/06/28 05:03:32;;;;;;;12.80;2.80;;;;;;;16.17;99.92;98608.33;135344;1281;22542;-69
2023/06/28 05:06:35;;;;;;;;;;;;;;;16.48;100.00;98599.09;135391;1281;22529;-71
2023/06/28 05:09:37;;;;;;;9.60;2.70;;;;;;;16.67;99.90;98596.92;135365;1281;24256;-65
2023/06/28 05:12:40;;;;;;;;;;;;;;;16.88;97.67;98603.50;135344;1281;22515;-68
2023/06/28 05:15:42;;;;;;;9.00;2.50;;;;;;;16.84;96.21;98594.34;135368;1281;22554;-68
2023/06/28 05:18:45;;;;;;;;;;;;;;;16.70;97.63;98590.29;135326;1281;23423;-69
2023/06/28 05:21:47;;;;;;;8.00;2.60;;;;;;;16.56;96.93;98588.33;135347;1281;22667;-71
2023/06/28 05:24:50;;;;;;;;;;;;;;;16.67;99.08;98584.89;135365;1281;25385;-68
2023/06/28 05:27:52;;;;;;;7.20;2.40;;;;;;;16.90;96.11;98585.85;135318;1281;22523;-70
2023/06/28 05:30:55;;;;;;;;;;;;;;;17.11;96.47;98578.69;135317;1281;25399;-71
2023/06/28 05:33:57;;;;;;;8.80;2.40;;;;;;;17.27;94.42;98575.92;135366;1281;24397;-72
2023/06/28 05:36:59;;;;;;;13.30;3.10;;;;;;;17.45;92.02;98577.08;135357;1281;22587;-74
2023/06/28 05:40:02;;;;;;;9.60;2.60;;;;;;;17.69;90.24;98578.97;135327;1281;22560;-71
2023/06/28 05:43:04;;;;;;;9.20;2.60;;;;;;;17.85;89.80;98567.89;135329;1281;22540;-72
2023/06/28 05:46:07;;;;;;;12.00;2.70;;;;;;;18.07;86.32;98572.73;135340;1281;22530;-73
2023/06/28 05:49:09;;;;;;;12.10;3.00;;;;;;;18.19;86.05;98570.52;135331;1261;22542;-68
2023/06/28 05:52:12;;;;;;;11.50;2.60;;;;;;;18.25;85.66;98570.14;135289;1281;22550;-70
2023/06/28 05:55:15;;;;;;;10.30;2.80;;;;;;;18.33;87.36;98573.09;135334;1281;22546;-70
2023/06/28 05:58:18;;;;;;;10.60;2.60;;;;;;;18.44;84.51;98569.33;135332;1281;25259;-69
2023/06/28 06:01:20;;;;;;;13.80;2.90;;;;;;;18.40;86.83;98569.74;135348;1281;24364;-69
2023/06/28 06:04:23;;;;;;;9.60;2.60;;;;;;;18.71;84.99;98565.14;135359;1281;22549;-70
2023/06/28 06:07:25;;;;;;;10.80;2.60;;;;;;;18.88;85.00;98574.42;135361;1281;26635;-70
2023/06/28 06:10:28;;;;;;;9.40;2.50;;;;;;;19.07;84.89;98576.47;135302;1281;22535;-73
2023/06/28 06:13:30;;;;;;;9.80;2.80;;;;;;;19.10;80.84;98579.71;135325;1281;24224;-71
2023/06/28 06:16:33;;;;;;;11.10;2.60;;;;;;;19.20;82.91;98579.92;135328;1281;22526;-71
2023/06/28 06:19:35;;;;;;;13.40;2.70;;;;;;;19.22;79.95;98577.27;135367;1281;22519;-73
2023/06/28 06:22:38;;;;;;;11.50;2.50;;;;;;;19.11;78.75;98577.82;135341;1281;22539;-71
2023/06/28 06:25:40;;;;;;;12.20;2.30;;;;;;;19.15;77.54;98578.09;135378;1281;25322;-70
2023/06/28 06:28:42;;;;;;;8.80;2.70;;;;;;;19.31;79.99;98576.04;135308;1281;24254;-69
2023/06/28 06:31:45;;;;;;;14.10;2.60;;;;;;;19.36;77.10;98575.48;135345;1281;22553;-66
2023/06/28 06:34:47;;;;;;;9.50;2.70;;;;;;;19.39;75.20;98577.86;135302;1281;22558;-70
2023/06/28 06:37:50;;;;;;;14.00;2.60;;;;;;;19.57;75.70;98573.52;135364;1281;22529;-70
2023/06/28 06:40:52;;;;;;;12.90;2.30;;;;;;;19.71;74.49;98583.08;135313;1281;22535;-65
2023/06/28 06:43:55;;;;;;;12.50;2.40;;;;;;;20.11;74.86;98578.98;135355;1281;22559;-71
2023/06/28 06:46:57;;;;;;;14.70;2.40;;;;;;;20.24;70.25;98579.61;135284;1281;22543;-69
2023/06/28 06:50:00;;;;;;;9.20;2.30;;;;;;;20.01;72.19;98581.33;135274;1281;22559;-70
2023/06/28 06:53:03;;;;;;;10.50;2.20;;;;;;;20.11;72.55;98574.80;135294;1281;22525;-71
2023/06/28 06:56:05;;;;;;;9.10;2.50;;;;;;;20.20;72.09;98569.78;135249;1281;22548;-71
2023/06/28 06:59:08;;;;;;;11.50;2.40;;;;;;;20.47;71.04;98568.89;135267;1281;22593;-69
2023/06/28 07:02:11;;;;;;;12.70;2.60;;;;;;;20.97;70.31;98567.67;135316;1281;22560;-69
2023/06/28 07:05:14;;;;;;;16.80;2.80;;;;;;;20.85;67.91;98570.34;135310;1281;22570;-67
2023/06/28 07:08:17;;;;;;;13.50;2.80;;;;;;;20.82;67.21;98570.07;135292;1281;22523;-70
2023/06/28 07:11:19;;;;;;;9.60;2.70;;;;;;;20.79;68.86;98559.80;135298;1281;24280;-70
2023/06/28 07:14:22;;;;;;;12.20;2.60;;;;;;;21.24;67.09;98562.06;135277;1281;25229;-64
2023/06/28 07:17:24;;;;;;;10.30;2.30;;;;;;;21.54;66.49;98557.54;135311;1281;22529;-67
2023/06/28 07:20:27;;;;;;;9.60;2.30;;;;;;;21.37;63.36;98563.84;135316;1262;24242;-65
2023/06/28 07:23:29;;;;;;;14.20;2.80;;;;;;;20.98;64.28;98568.46;135313;1281;22540;-68
2023/06/28 07:26:32;;;;;;;12.10;2.60;;;;;;;20.47;63.07;98566.05;135321;1281;22544;-69
2023/06/28 07:29:35;;;;;;;14.20;2.80;;;;;;;20.54;65.44;98564.05;135303;1261;22542;-68
2023/06/28 07:32:38;;;;;;;7.70;2.30;;;;;;;20.95;65.78;98563.73;135322;1281;24298;-67
2023/06/28 07:35:40;;;;;;;8.80;2.60;;;;;;;20.98;65.05;98562.23;135291;1281;22556;-67
2023/06/28 07:38:42;;;;;;;14.90;2.60;;;;;;;21.12;61.02;98574.90;135325;1281;22533;-68
2023/06/28 07:41:45;;;;;;;12.00;2.70;;;;;;;21.15;61.52;98566.62;135320;1281;22555;-69
2023/06/28 07:44:47;;;;;;;9.90;2.40;;;;;;;21.58;61.63;98557.42;135298;1281;23441;-69
2023/06/28 07:47:50;;;;;;;10.60;2.20;;;;;;;21.43;58.85;98556.81;135273;1281;22538;-70
2023/06/28 07:50:52;;;;;;;9.20;2.00;;;;;;;21.24;59.79;98554.89;135277;1281;22540;-75
2023/06/28 07:53:55;;;;;;;15.00;2.60;;;;;;;21.61;59.91;98557.29;135302;1281;22679;-70
2023/06/28 07:56:57;;;;;;;13.20;2.70;;;;;;;21.94;59.97;98547.77;135307;1281;22537;-69
2023/06/28 07:59:59;;;;;;;8.80;2.50;;;;;;;22.22;58.35;98545.70;135317;1281;22558;-71
2023/06/28 08:03:02;;;;;;;13.60;2.70;;;;;;;21.86;56.80;98551.86;135298;1277;22536;-70
2023/06/28 08:06:06;;;;;;;12.10;2.70;;;;;;;21.66;58.23;98554.40;135305;1281;22538;-71
2023/06/28 08:09:09;;;;;;;8.80;2.20;;;;;;;21.72;59.30;98541.42;135298;1281;24256;-71
2023/06/28 08:12:11;;;;;;;11.60;2.50;;;;;;;22.12;57.17;98551.05;135336;1281;25346;-72
2023/06/28 08:15:14;;;;;;;12.60;2.90;;;;;;;22.42;53.99;98550.52;135278;1281;25245;-72
2023/06/28 08:18:17;;;;;;;12.50;2.70;;;;;;;22.60;55.06;98542.21;135298;1261;24364;-71
2023/06/28 08:21:19;;;;;;;11.00;2.30;;;;;;;22.84;51.54;98547.19;135304;1281;22549;-74
2023/06/28 08:24:22;;;;;;;11.50;2.30;;;;;;;22.86;53.09;98540.65;135294;1281;22596;-71
2023/06/28 08:27:24;;;;;;;12.40;2.20;;;;;;;22.87;52.27;98534.66;135307;1281;22604;-71
2023/06/28 08:30:27;;;;;;;11.60;2.60;;;;;;;22.73;52.06;98532.04;135252;1280;25247;-72
2023/06/28 08:33:29;;;;;;;9.50;2.30;;;;;;;22.60;52.46;98532.63;135299;1281;22540;-73
2023/06/28 08:36:32;;;;;;;9.30;2.20;;;;;;;22.28;52.85;98543.73;135342;1281;22555;-70
2023/06/28 08:39:36;;;;;;;12.00;2.50;;;;;;;22.18;52.18;98536.33;135301;1281;22525;-70
2023/06/28 08:42:38;;;;;;;11.50;2.40;;;;;;;21.88;52.57;98535.54;135332;1281;22551;-73
2023/06/28 08:45:41;;;;;;;10.90;2.40;;;;;;;21.95;52.79;98534.84;135315;1281;22536;-70
2023/06/28 08:48:43;;;;;;;14.10;2.60;;;;;;;21.86;52.42;98539.92;135205;1281;22526;-71
2023/06/28 08:51:46;;;;;;;14.20;2.90;;;;;;;22.37;51.67;98531.86;135319;1281;22635;-71
2023/06/28 08:54:49;;;;;;;9.60;2.20;;;;;;;22.62;51.96;98526.84;135228;1281;22529;-68
2023/06/28 08:57:51;;;;;;;9.90;2.40;;;;;;;22.01;51.19;98532.37;135332;1281;22522;-70
2023/06/28 09:00:53;;;;;;;15.90;2.90;;;;;;;21.29;52.77;98529.69;135314;1262;22520;-70
2023/06/28 09:03:56;;;;;;;12.70;2.20;;;;;;;21.00;54.83;98526.75;135287;1281;22549;-70
2023/06/28 09:06:59;;;;;;;16.40;2.30;;;;;;;21.12;54.27;98521.16;135307;1281;22535;-72
2023/06/28 09:10:01;;;;;;;11.90;2.40;;;;;;;21.54;52.97;98522.10;135286;1281;22526;-70
2023/06/28 09:13:04;;;;;;;9.50;2.10;;;;;;;22.06;52.40;98519.40;135255;1271;22540;-71
2023/06/28 09:16:06;;;;;;;13.40;2.50;;;;;;;22.74;50.81;98511.90;135315;1281;22523;-71
2023/06/28 09:19:09;;;;;;;13.80;2.80;;;;;;;23.14;50.43;98514.89;135293;1281;22548;-71
2023/06/28 09:22:11;;;;;;;9.90;1.90;;;;;;;22.84;48.17;98518.91;135256;1281;22526;-72
2023/06/28 09:25:14;;;;;;;9.00;1.80;;;;;;;22.53;48.08;98522.59;135299;1281;22526;-69
2023/06/28 09:28:16;;;;;;;9.80;2.70;;;;;;;22.18;49.03;98517.27;135291;1281;22527;-67
2023/06/28 09:31:19;;;;;;;12.50;3.50;;;;;;;21.85;51.22;98518.66;135306;1262;22540;-73
2023/06/28 09:34:21;;;;;;;11.50;3.30;;;;;;;21.51;52.77;98523.48;135310;1281;22526;-70
2023/06/28 09:37:24;;;;;;;12.40;2.50;;;;;;;21.26;52.07;98526.41;135285;1281;22537;-72
2023/06/28 09:40:26;;;;;;;17.60;2.80;;;;;;;21.15;53.01;98519.80;135270;1281;22527;-70
2023/06/28 09:43:28;;;;;;;9.60;2.30;;;;;;;21.68;52.89;98517.33;135264;1266;22536;-74
2023/06/28 09:46:31;;;;;;;13.00;2.40;;;;;;;22.27;51.74;98511.25;135290;1281;25293;-72
2023/06/28 09:49:33;;;;;;;13.90;3.10;;;;;;;22.76;49.80;98511.98;135283;1281;22526;-69
2023/06/28 09:52:36;;;;;;;12.90;2.10;;;;;;;23.05;49.50;98509.75;135211;1281;24391;-71
2023/06/28 09:55:39;;;;;;;10.10;2.30;;;;;;;23.26;48.82;98497.13;135266;1259;22529;-73
2023/06/28 09:58:42;;;;;;;13.30;2.50;;;;;;;23.53;47.71;98497.34;135235;1281;22555;-74
2023/06/28 10:01:44;;;;;;;10.00;2.20;;;;;;;23.78;45.58;98489.80;135227;1281;22533;-70
2023/06/28 10:04:46;;;;;;;10.90;2.60;;;;;;;23.75;45.14;98493.36;135277;1278;22644;-68
2023/06/28 10:07:49;;;;;;;12.00;2.20;;;;;;;23.87;44.02;98499.44;135268;1281;22635;-66
2023/06/28 10:10:51;;;;;;;11.20;2.80;;;;;;;23.94;43.79;98495.91;135278;1281;22535;-70
2023/06/28 10:13:54;;;;;;;10.90;2.30;;;;;;;23.95;43.78;98493.36;135297;1281;25260;-69
2023/06/28 10:16:56;;;;;;;10.50;2.30;;;;;;;24.14;44.05;98484.06;135286;1281;22536;-69
2023/06/28 10:19:59;;;;;;;8.30;2.30;;;;;;;24.34;43.25;98479.95;135241;1281;22535;-70
2023/06/28 10:23:01;;;;;;;13.80;2.80;;;;;;;24.56;43.08;98479.58;135287;1281;22570;-64
2023/06/28 10:26:04;;;;;;;8.70;2.10;;;;;;;23.98;43.43;98484.21;135277;1281;22539;-68
2023/06/28 10:29:06;;;;;;;14.50;3.10;;;;;;;23.47;44.77;98496.38;135281;1281;22546;-68
2023/06/28 10:32:10;;;;;;;13.40;2.90;;;;;;;22.59;46.79;98507.73;135294;1280;22526;-67
2023/06/28 10:35:12;;;;;;;8.00;2.30;;;;;;;22.10;47.91;98505.66;135303;1281;22527;-66
2023/06/28 10:38:15;;;;;;;10.80;2.30;;;;;;;21.64;47.33;98507.34;135288;1281;22559;-70
2023/06/28 10:41:17;;;;;;;12.10;3.00;;;;;;;21.44;46.53;98506.84;135294;1281;23245;-66
2023/06/28 10:44:20;;;;;;;16.40;2.90;;;;;;;21.48;48.41;98503.61;135298;1281;22566;-71
2023/06/28 10:47:22;;;;;;;12.90;2.40;;;;;;;21.45;49.48;98507.84;135271;1281;22531;-65
2023/06/28 10:50:24;;;;;;;11.80;2.50;;;;;;;21.31;48.45;98511.50;135283;1281;22539;-66
2023/06/28 10:53:27;;;;;;;13.80;2.60;;;;;;;21.10;47.34;98520.17;135295;1262;22525;-67
2023/06/28 10:56:29;;;;;;;12.10;2.70;;;;;;;20.95;47.97;98515.71;135316;1262;22607;-67
2023/06/28 10:59:32;;;;;;;12.70;2.20;;;;;;;21.02;47.49;98504.03;135284;1281;23058;-65
2023/06/28 11:02:35;;;;;;;15.80;2.60;;;;;;;21.21;48.44;98505.96;135303;1281;22530;-69
2023/06/28 11:05:38;;;;;;;14.80;2.20;;;;;;;21.44;48.51;98502.45;135292;1281;22532;-72
2023/06/28 11:08:40;;;;;;;16.10;2.60;;;;;;;21.65;47.91;98499.90;135290;1262;24221;-70
2023/06/28 11:11:43;;;;;;;9.60;2.40;;;;;;;21.81;48.01;98494.16;135290;1281;22550;-68
2023/06/28 11:14:45;;;;;;;12.60;2.40;;;;;;;22.08;47.21;98492.39;135306;1281;24353;-68
2023/06/28 11:17:48;;;;;;;11.50;2.40;;;;;;;22.36;46.38;98494.63;135277;1281;22525;-67
2023/06/28 11:20:50;;;;;;;13.70;2.80;;;;;;;22.71;47.29;98493.02;135277;1281;22558;-71
2023/06/28 11:23:53;;;;;;;11.20;2.70;;;;;;;23.26;46.70;98486.58;135290;1277;22563;-71
2023/06/28 11:26:55;;;;;;;12.40;3.00;;;;;;;23.77;46.31;98479.95;135312;1281;22523;-69
2023/06/28 11:29:58;;;;;;;14.40;2.50;;;;;;;24.09;44.37;98493.02;135289;1281;22535;-69
2023/06/28 11:33:01;;;;;;;9.30;2.20;;;;;;;23.87;43.31;98511.92;135287;1278;22529;-72
2023/06/28 11:36:03;;;;;;;16.90;2.70;;;;;;;23.63;43.57;98509.34;135272;1279;25241;-69
2023/06/28 11:39:07;;;;;;;18.90;3.90;;;;;;;23.48;44.46;98508.68;135306;1281;22997;-67
2023/06/28 11:42:09;;;;;;;11.70;2.50;;;;;;;23.45;43.15;98512.20;135289;1261;22576;-70
2023/06/28 11:45:12;;;;;;;15.30;3.20;;;;;;;23.66;43.01;98497.67;135306;1281;22545;-68
2023/06/28 11:48:15;;;;;;;14.60;2.50;;;;;;;23.67;43.56;98496.30;135277;1281;22542;-66
2023/06/28 11:51:17;;;;;;;12.90;2.10;;;;;;;23.82;41.90;98499.00;135299;1281;22529;-68
2023/06/28 11:54:20;;;;;;;11.70;2.10;;;;;;;23.68;41.10;98493.67;135292;1281;22651;-73
2023/06/28 11:57:22;;;;;;;14.20;2.60;;;;;;;23.80;41.13;98499.80;135281;1281;22526;-72
2023/06/28 12:00:25;;;;;;;10.60;2.30;;;;;;;23.46;41.81;98498.31;135306;1281;22545;-69
2023/06/28 12:03:27;;;;;;;11.90;2.00;;;;;;;23.37;41.72;98501.65;135297;1281;22645;-71
2023/06/28 12:06:30;;;;;;;12.20;2.10;;;;;;;23.54;40.56;98506.66;135305;1281;22531;-66
2023/06/28 12:09:32;;;;;;;14.20;2.20;;;;;;;23.48;39.95;98498.83;135310;1281;22533;-72
2023/06/28 12:12:35;;;;;;;11.60;2.40;;;;;;;23.73;40.79;98497.37;135293;1281;22574;-70
2023/06/28 12:15:38;;;;;;;11.40;2.30;;;;;;;24.03;41.37;98483.66;135289;1281;22540;-69
2023/06/28 12:18:40;;;;;;;8.10;1.80;;;;;;;24.26;40.84;98481.72;135285;1281;22532;-73
2023/06/28 12:21:43;;;;;;;15.50;2.40;;;;;;;24.14;41.19;98473.52;135285;1281;22536;-68
2023/06/28 12:24:45;;;;;;;8.20;1.90;;;;;;;24.13;41.70;98468.48;135265;1281;22533;-72
2023/06/28 12:27:47;;;;;;;13.40;2.20;;;;;;;23.78;41.92;98475.90;135313;1281;22554;-70
2023/06/28 12:30:50;;;;;;;10.50;2.10;;;;;;;23.28;42.72;98485.21;135279;1281;25451;-70
2023/06/28 12:33:53;;;;;;;10.50;2.30;;;;;;;23.08;43.55;98481.71;135306;1281;22542;-70
2023/06/28 12:36:56;;;;;;;12.80;2.20;;;;;;;22.93;44.44;98491.88;135283;1281;22544;-71
2023/06/28 12:39:58;;;;;;;13.40;2.50;;;;;;;22.87;44.82;98501.20;135269;1281;25470;-69
2023/06/28 12:43:01;;;;;;;12.70;2.20;;;;;;;22.85;44.23;98497.70;135273;1281;22543;-72
2023/06/28 12:46:03;;;;;;;11.20;2.20;;;;;;;22.90;43.75;98499.54;135282;1281;22534;-68
2023/06/28 12:49:06;;;;;;;12.00;2.50;;;;;;;22.89;42.99;98506.07;135306;1281;22535;-70
2023/06/28 12:52:09;;;;;;;8.40;1.90;;;;;;;23.52;43.23;98494.86;135297;1281;22530;-66
2023/06/28 12:55:11;;;;;;;12.80;2.40;;;;;;;24.15;43.41;98497.35;135289;1281;22535;-71
2023/06/28 12:58:13;;;;;;;12.50;3.00;;;;;;;24.41;41.13;98500.59;135333;1281;22549;-71
2023/06/28 13:01:16;;;;;;;9.60;2.30;;;;;;;24.60;41.40;98498.79;135229;1281;24439;-71
2023/06/28 13:04:18;;;;;;;8.00;2.20;;;;;;;24.63;40.69;98499.34;135254;1281;24215;-71
2023/06/28 13:07:21;;;;;;;12.00;2.30;;;;;;;24.78;41.65;98498.25;135242;1281;22552;-69
2023/06/28 13:10:23;;;;;;;12.20;2.30;;;;;;;24.52;41.52;98511.68;135229;1281;22533;-70
2023/06/28 13:13:26;;;;;;;11.70;2.50;;;;;;;23.99;41.32;98531.89;135303;1281;24372;-69
2023/06/28 13:16:28;;;;;;;14.50;2.50;;;;;;;23.82;41.81;98540.90;135294;1281;23291;-72
2023/06/28 13:19:31;;;;;;;14.00;2.60;;;;;;;23.83;41.49;98537.30;135296;1281;22534;-71
2023/06/28 13:22:33;;;;;;;11.60;2.50;;;;;;;23.59;42.44;98522.66;135290;1281;22537;-70
2023/06/28 13:25:36;;;;;;;11.70;2.40;;;;;;;23.44;43.31;98527.34;135294;1281;22557;-67
2023/06/28 13:28:38;;;;;;;13.30;2.50;;;;;;;23.40;44.19;98518.11;135279;1281;22543;-71
2023/06/28 13:31:42;;;;;;;11.70;2.60;;;;;;;23.32;45.08;98538.33;135288;1266;22544;-68
2023/06/28 13:34:45;;;;;;;14.00;2.80;;;;;;;23.05;45.77;98548.83;135322;1281;22546;-69
2023/06/28 13:37:48;;;;;;;20.00;2.80;;;;;;;22.59;47.71;98558.25;135299;1281;22533;-65
2023/06/28 13:40:51;;;;;;;15.80;3.00;;;;;;;22.41;49.37;98548.48;135284;1281;22534;-69
2023/06/28 13:43:53;;;;;;;9.80;2.70;;;;;;;22.42;50.27;98552.52;135344;1281;22532;-69
2023/06/28 13:46:55;;;;;;;19.80;3.30;;;;;;;22.19;50.16;98555.02;135275;1281;23898;-64
2023/06/28 13:49:58;;;;;;;16.40;2.70;;;;;;;22.11;50.99;98561.08;135306;1281;25363;-69
2023/06/28 13:53:01;;;;;;;13.50;2.80;;;;;;;22.11;50.11;98572.86;135253;1281;22555;-73
2023/06/28 13:56:03;;;;;;;10.10;2.80;;;;;;;21.98;50.36;98578.38;135309;1281;22546;-73
2023/06/28 13:59:06;;;;;;;8.50;2.80;;;;;;;21.82;50.71;98572.98;135305;1281;22537;-70
2023/06/28 14:02:08;;;;;;;10.50;2.70;;;;;;;21.35;50.56;98579.17;135288;1281;22566;-70
2023/06/28 14:05:11;;;;;;;14.00;2.70;;;;;;;21.03;51.84;98577.86;135280;1281;22530;-66
2023/06/28 14:08:13;;;;;;;14.00;2.80;;;;;;;20.85;52.89;98583.83;135295;1281;22573;-70
2023/06/28 14:11:16;;;;;;;17.90;3.10;;;;;;;20.70;54.25;98578.01;135294;1281;22536;-69